Time;durP1;ratioP1;P1;durP2;ratioP2;P2;SDS_P1;SDS_P2;PMS_P1;PMS_P2;Temp;Humidity;BMP_temperature;BMP_pressure;BME280_temperature;BME280_humidity;BME280_pressure;Samples;Min_cycle;Max_cycle;Signal;HPM_P1;HPM_P2
2023/07/29 00:00:00;;;;;;;2.13;1.97;;;;;;;17.62;100.00;96111.81;4971436;28;105423;-59
2023/07/29 00:02:29;;;;;;;1.50;1.40;;;;;;;17.64;100.00;96112.28;4989090;28;103066;-59
2023/07/29 00:04:58;;;;;;;1.80;1.57;;;;;;;17.69;100.00;96107.63;4989379;28;101843;-59
2023/07/29 00:07:24;;;;;;;2.20;2.00;;;;;;;17.72;100.00;96108.91;4989229;28;102522;-59
2023/07/29 00:09:51;;;;;;;1.90;1.80;;;;;;;17.70;100.00;96103.00;4988780;28;102578;-59
2023/07/29 00:12:18;;;;;;;2.30;2.03;;;;;;;17.71;100.00;96108.09;4971261;28;101892;-59
2023/07/29 00:14:45;;;;;;;2.40;1.77;;;;;;;17.74;100.00;96093.25;4971265;28;104181;-59
2023/07/29 00:17:12;;;;;;;1.83;1.73;;;;;;;17.73;100.00;96088.97;4992024;28;103045;-59
2023/07/29 00:19:39;;;;;;;2.43;1.70;;;;;;;17.71;100.00;96096.56;4989179;28;103005;-60
2023/07/29 00:22:08;;;;;;;1.80;1.70;;;;;;;17.71;100.00;96088.50;4970648;28;105385;-59
2023/07/29 00:24:35;;;;;;;2.07;1.87;;;;;;;17.74;100.00;96086.00;4971486;28;101924;-59
2023/07/29 00:27:02;;;;;;;2.10;1.80;;;;;;;17.70;100.00;96085.00;4974478;28;105430;-59
2023/07/29 00:29:28;;;;;;;1.73;1.63;;;;;;;17.74;100.00;96080.59;4973931;28;105467;-60
2023/07/29 00:31:55;;;;;;;2.20;1.80;;;;;;;17.75;100.00;96078.69;4992402;28;101850;-60
2023/07/29 00:34:22;;;;;;;2.17;1.70;;;;;;;17.74;100.00;96079.81;4974311;28;105257;-60
2023/07/29 00:36:49;;;;;;;2.33;1.53;;;;;;;17.76;100.00;96086.47;4973904;28;105535;-60
2023/07/29 00:39:19;;;;;;;3.07;1.77;;;;;;;17.76;100.00;96074.94;4977879;28;101904;-60
2023/07/29 00:41:46;;;;;;;1.83;1.60;;;;;;;17.78;100.00;96086.97;4973591;28;105528;-59
2023/07/29 00:44:13;;;;;;;1.60;1.50;;;;;;;17.79;100.00;96077.00;4992291;28;101960;-59
2023/07/29 00:46:42;;;;;;;1.80;1.70;;;;;;;17.81;100.00;96085.56;4974385;28;104944;-59
2023/07/29 00:49:09;;;;;;;1.83;1.73;;;;;;;17.83;100.00;96080.69;4973495;28;105009;-59
2023/07/29 00:51:35;;;;;;;1.80;1.70;;;;;;;17.85;100.00;96076.59;4992062;28;101987;-59
2023/07/29 00:54:03;;;;;;;1.70;1.60;;;;;;;17.85;100.00;96075.78;4974155;28;105330;-59
2023/07/29 00:56:31;;;;;;;1.60;1.50;;;;;;;17.77;100.00;96076.53;4973282;28;105922;-59
2023/07/29 00:59:01;;;;;;;1.90;1.80;;;;;;;17.81;100.00;96069.41;4973985;28;101949;-59
2023/07/29 01:01:28;;;;;;;2.47;1.70;;;;;;;17.78;100.00;96065.47;4994575;28;102884;-59
2023/07/29 01:03:56;;;;;;;1.80;1.70;;;;;;;17.78;100.00;96064.66;4991931;28;101963;-59
2023/07/29 01:06:35;;;;;;;1.83;1.60;;;;;;;17.84;100.00;96069.63;4974112;28;105713;-59
2023/07/29 01:09:05;;;;;;;1.60;1.50;;;;;;;17.82;100.00;96063.75;4973597;28;105799;-59
2023/07/29 01:11:43;;;;;;;1.70;1.60;;;;;;;17.80;100.00;96067.81;4973896;28;101870;-59
2023/07/29 01:14:22;;;;;;;1.87;1.77;;;;;;;17.78;100.00;96057.41;4973870;28;105341;-59
2023/07/29 01:16:54;;;;;;;2.50;1.77;;;;;;;17.86;100.00;96055.84;4973181;28;105364;-59
2023/07/29 01:19:43;;;;;;;2.30;2.10;;;;;;;17.78;100.00;96054.72;4973945;28;102225;-59
2023/07/29 01:22:12;;;;;;;1.80;1.70;;;;;;;17.79;100.00;96050.09;4991956;28;102376;-59
2023/07/29 01:24:41;;;;;;;2.57;1.50;;;;;;;17.69;100.00;96056.50;4976389;28;106081;-59
2023/07/29 01:27:08;;;;;;;1.60;1.50;;;;;;;17.67;100.00;96052.53;4973557;28;105690;-59
2023/07/29 01:29:35;;;;;;;1.90;1.80;;;;;;;17.68;100.00;96056.81;4973015;28;105875;-59
2023/07/29 01:32:10;;;;;;;1.73;1.63;;;;;;;17.66;100.00;96051.72;4991867;28;102142;-59
2023/07/29 01:34:46;;;;;;;1.60;1.50;;;;;;;17.63;100.00;96052.34;4973393;28;105610;-59
2023/07/29 01:37:20;;;;;;;2.47;1.77;;;;;;;17.71;100.00;96045.47;4971797;28;105745;-59
2023/07/29 01:39:51;;;;;;;2.00;1.80;;;;;;;17.66;100.00;96048.25;4973392;28;101923;-59
2023/07/29 01:42:19;;;;;;;1.80;1.70;;;;;;;17.52;100.00;96066.31;4991654;28;102519;-59
2023/07/29 01:44:46;;;;;;;1.90;1.80;;;;;;;17.56;100.00;96049.25;4972757;28;105650;-59
2023/07/29 01:47:13;;;;;;;2.67;1.70;;;;;;;17.60;100.00;96044.09;4994851;28;101860;-59
2023/07/29 01:49:40;;;;;;;3.23;1.80;;;;;;;17.66;100.00;96035.59;4972164;28;105406;-60
2023/07/29 01:52:07;;;;;;;2.47;1.73;;;;;;;17.66;100.00;96024.06;4973314;28;101817;-59
2023/07/29 01:54:34;;;;;;;2.00;1.80;;;;;;;17.67;100.00;96028.34;4972982;28;105750;-59
2023/07/29 01:57:04;;;;;;;1.80;1.70;;;;;;;17.59;100.00;96020.97;4972644;28;105563;-59
2023/07/29 01:59:31;;;;;;;2.90;1.87;;;;;;;17.53;100.00;96025.69;4973215;28;102086;-59
2023/07/29 02:01:57;;;;;;;1.97;1.70;;;;;;;17.48;100.00;96031.16;4973100;28;105764;-59
2023/07/29 02:04:24;;;;;;;1.60;1.50;;;;;;;17.56;100.00;96027.75;4990432;28;103204;-59
2023/07/29 02:06:51;;;;;;;1.87;1.77;;;;;;;17.64;100.00;96028.94;4973000;28;102132;-59
2023/07/29 02:09:18;;;;;;;2.27;1.70;;;;;;;17.67;100.00;96023.75;4975764;28;104602;-59
2023/07/29 02:11:45;;;;;;;1.77;1.67;;;;;;;17.68;100.00;96022.66;4990986;28;101845;-59
2023/07/29 02:14:14;;;;;;;1.67;1.57;;;;;;;17.63;100.00;96027.34;4972782;28;105323;-59
2023/07/29 02:16:41;;;;;;;2.10;1.90;;;;;;;17.59;100.00;96023.66;4972168;28;105042;-59
2023/07/29 02:19:08;;;;;;;2.67;1.77;;;;;;;17.56;100.00;96025.06;4972836;28;102026;-59
2023/07/29 02:21:37;;;;;;;2.10;1.70;;;;;;;17.55;100.00;96028.84;4973451;28;102158;-59
2023/07/29 02:24:05;;;;;;;1.97;1.60;;;;;;;17.62;100.00;96034.63;4972323;28;105890;-59
2023/07/29 02:26:32;;;;;;;2.57;1.90;;;;;;;17.66;100.00;96032.91;4972707;28;101830;-59
2023/07/29 02:28:58;;;;;;;1.80;1.70;;;;;;;17.68;100.00;96021.84;4975487;28;105078;-59
2023/07/29 02:31:27;;;;;;;1.80;1.70;;;;;;;17.68;100.00;96022.66;4972723;28;101852;-59
2023/07/29 02:33:54;;;;;;;2.50;1.77;;;;;;;17.70;100.00;96027.72;4990429;28;102563;-59
2023/07/29 02:36:21;;;;;;;1.93;1.70;;;;;;;17.71;100.00;96022.03;4971747;28;105560;-59
2023/07/29 02:38:48;;;;;;;1.97;1.70;;;;;;;17.69;100.00;96018.06;4972515;28;101935;-59
2023/07/29 02:41:16;;;;;;;2.20;2.00;;;;;;;17.65;100.00;96027.84;4972593;28;105282;-60
2023/07/29 02:43:43;;;;;;;1.90;1.80;;;;;;;17.63;100.00;96020.06;4989662;28;102732;-59
2023/07/29 02:46:10;;;;;;;2.40;2.20;;;;;;;17.60;100.00;96028.75;4972426;28;101941;-59
2023/07/29 02:48:39;;;;;;;2.20;2.00;;;;;;;17.60;100.00;96028.75;4972044;28;105340;-60
2023/07/29 02:51:06;;;;;;;2.27;2.10;;;;;;;17.57;100.00;96036.63;4974830;28;103901;-59
2023/07/29 02:53:33;;;;;;;2.30;2.10;;;;;;;17.54;100.00;96035.31;4990158;28;102423;-60
2023/07/29 02:56:00;;;;;;;1.90;1.80;;;;;;;17.53;100.00;96032.94;4971419;28;105369;-60
2023/07/29 02:58:27;;;;;;;2.23;2.00;;;;;;;17.49;100.00;96037.34;4990400;28;101885;-59
2023/07/29 03:00:54;;;;;;;3.73;2.37;;;;;;;17.42;100.00;96036.94;4972351;28;104389;-59
2023/07/29 03:03:21;;;;;;;2.20;2.00;;;;;;;17.41;100.00;96035.34;4971564;28;105727;-59
2023/07/29 03:05:50;;;;;;;3.07;2.07;;;;;;;17.36;100.00;96033.53;4972239;28;101912;-60
2023/07/29 03:08:16;;;;;;;2.53;2.23;;;;;;;17.31;100.00;96054.34;4972102;28;104817;-59
2023/07/29 03:10:43;;;;;;;2.00;1.90;;;;;;;17.20;100.00;96058.34;4971412;28;105847;-59
2023/07/29 03:13:10;;;;;;;2.30;2.10;;;;;;;17.20;100.00;96056.47;4975722;28;102130;-60
2023/07/29 03:15:37;;;;;;;1.93;1.77;;;;;;;17.10;100.00;96063.91;4971326;28;105601;-59
2023/07/29 03:18:04;;;;;;;2.83;2.10;;;;;;;17.02;100.00;96070.00;4990397;28;101928;-59
2023/07/29 03:20:31;;;;;;;4.30;2.20;;;;;;;16.94;100.00;96066.09;4989822;28;102331;-59
2023/07/29 03:22:59;;;;;;;2.63;2.30;;;;;;;16.90;100.00;96069.69;4971020;28;105843;-59
2023/07/29 03:25:26;;;;;;;2.40;2.00;;;;;;;16.90;100.00;96067.00;4971872;28;101985;-59
2023/07/29 03:27:53;;;;;;;5.83;2.40;;;;;;;16.82;100.00;96076.53;4971829;28;105373;-59
2023/07/29 03:30:22;;;;;;;2.30;2.10;;;;;;;16.88;100.00;96077.22;4971314;28;105524;-59
2023/07/29 03:32:49;;;;;;;2.00;1.90;;;;;;;16.91;100.00;96069.41;4971837;28;101974;-59
2023/07/29 03:35:17;;;;;;;2.90;2.27;;;;;;;16.91;100.00;96073.97;4974550;28;105219;-59
2023/07/29 03:37:45;;;;;;;2.50;2.30;;;;;;;16.95;100.00;96072.28;4971701;28;102085;-59
2023/07/29 03:40:13;;;;;;;5.33;2.03;;;;;;;16.95;100.00;96069.59;4971812;28;105648;-59
2023/07/29 03:42:40;;;;;;;2.00;1.90;;;;;;;17.01;100.00;96074.56;4971205;28;106032;-59
2023/07/29 03:45:08;;;;;;;2.43;2.10;;;;;;;17.03;100.00;96066.19;4989497;28;102051;-60
2023/07/29 03:47:35;;;;;;;2.23;2.07;;;;;;;17.00;100.00;96075.66;4989603;28;102825;-60
2023/07/29 03:50:04;;;;;;;3.03;2.10;;;;;;;17.01;100.00;96071.09;4970610;28;105443;-60
2023/07/29 03:52:31;;;;;;;2.20;2.10;;;;;;;17.05;100.00;96072.09;4971659;28;102267;-60
2023/07/29 03:54:58;;;;;;;1.90;1.80;;;;;;;17.14;100.00;96070.28;4971761;28;105710;-60
2023/07/29 03:57:26;;;;;;;2.40;2.20;;;;;;;17.19;100.00;96073.69;4992295;28;103118;-60
2023/07/29 03:59:53;;;;;;;2.23;2.00;;;;;;;17.23;100.00;96060.44;4972454;28;105771;-60
2023/07/29 04:02:20;;;;;;;1.90;1.80;;;;;;;17.22;100.00;96072.28;4974414;28;105329;-60
2023/07/29 04:04:48;;;;;;;2.07;1.83;;;;;;;17.27;100.00;96062.22;4974835;28;102047;-60
2023/07/29 04:07:16;;;;;;;2.47;1.73;;;;;;;17.35;100.00;96063.41;4975040;28;103922;-60
2023/07/29 04:09:43;;;;;;;2.00;1.83;;;;;;;17.39;100.00;96059.84;4974122;28;105622;-60
2023/07/29 04:12:11;;;;;;;1.80;1.70;;;;;;;17.43;100.00;96058.16;4974772;28;101967;-59
2023/07/29 04:14:39;;;;;;;2.33;1.97;;;;;;;17.46;100.00;96054.88;4992758;28;102346;-59
2023/07/29 04:17:06;;;;;;;2.00;1.90;;;;;;;17.49;100.00;96046.19;4991959;28;102901;-59
2023/07/29 04:19:33;;;;;;;1.93;1.83;;;;;;;17.51;100.00;96040.53;4978149;28;101888;-61
2023/07/29 04:22:00;;;;;;;2.10;1.90;;;;;;;17.56;100.00;96043.09;4973875;28;104915;-61
2023/07/29 04:24:27;;;;;;;2.40;2.20;;;;;;;17.52;100.00;96044.78;4974743;28;102033;-61
2023/07/29 04:26:54;;;;;;;2.20;2.00;;;;;;;17.56;100.00;96040.41;4974600;28;105136;-59
2023/07/29 04:29:22;;;;;;;2.77;2.17;;;;;;;17.53;100.00;96047.19;4974118;28;105431;-59
2023/07/29 04:31:51;;;;;;;2.80;1.83;;;;;;;17.53;100.00;96049.06;4974537;28;102177;-59
2023/07/29 04:34:18;;;;;;;2.17;2.07;;;;;;;17.56;100.00;96051.16;4992144;28;102372;-60
2023/07/29 04:36:45;;;;;;;2.03;1.93;;;;;;;17.64;100.00;96048.56;4973874;28;105706;-62
2023/07/29 04:39:12;;;;;;;2.20;2.03;;;;;;;17.72;100.00;96041.66;4978068;28;101957;-60
2023/07/29 04:41:39;;;;;;;2.07;1.97;;;;;;;17.75;100.00;96049.91;4973796;28;105732;-59
2023/07/29 04:44:06;;;;;;;2.30;2.10;;;;;;;17.79;100.00;96052.78;4992306;28;101859;-59
2023/07/29 04:46:34;;;;;;;2.07;1.70;;;;;;;17.76;100.00;96037.28;4974395;28;105901;-60
2023/07/29 04:49:03;;;;;;;1.97;1.87;;;;;;;17.85;100.00;96035.44;4973507;28;105945;-60
2023/07/29 04:51:31;;;;;;;2.77;1.50;;;;;;;17.83;100.00;96026.88;4974206;28;101969;-60
2023/07/29 04:53:58;;;;;;;2.03;1.80;;;;;;;17.95;100.00;96024.44;4992083;28;102441;-60
2023/07/29 04:56:25;;;;;;;1.70;1.60;;;;;;;17.94;100.00;96022.84;4973434;28;105662;-60
2023/07/29 04:58:52;;;;;;;1.50;1.40;;;;;;;18.03;100.00;96013.75;4973912;28;101995;-60
2023/07/29 05:01:19;;;;;;;2.17;1.60;;;;;;;18.07;100.00;96003.97;4977034;28;105703;-61
2023/07/29 05:03:46;;;;;;;1.60;1.50;;;;;;;18.14;100.00;95993.56;4973763;28;102050;-61
2023/07/29 05:06:15;;;;;;;1.57;1.47;;;;;;;18.19;100.00;96000.69;4973968;28;104264;-60
2023/07/29 05:08:42;;;;;;;1.77;1.67;;;;;;;18.17;100.00;95997.53;4973255;28;105846;-60
2023/07/29 05:11:09;;;;;;;1.70;1.60;;;;;;;18.15;100.00;96007.81;4991715;28;101853;-60
2023/07/29 05:13:36;;;;;;;2.17;1.80;;;;;;;18.13;100.00;96001.94;4991786;28;101738;-60
2023/07/29 05:16:02;;;;;;;2.13;2.03;;;;;;;18.21;100.00;95998.53;4973045;28;104715;-61
2023/07/29 05:18:29;;;;;;;2.13;2.00;;;;;;;18.28;100.00;95988.09;4973663;28;102160;-61
2023/07/29 05:20:56;;;;;;;2.23;2.03;;;;;;;18.38;100.00;95993.25;4973650;28;104786;-61
2023/07/29 05:23:25;;;;;;;2.00;1.90;;;;;;;18.55;100.00;95994.16;4994772;28;102551;-61
2023/07/29 05:25:52;;;;;;;1.93;1.83;;;;;;;18.75;100.00;95990.91;4973709;28;105277;-60
2023/07/29 05:28:19;;;;;;;2.33;2.00;;;;;;;18.95;100.00;95992.22;4991098;28;102627;-60
2023/07/29 05:30:46;;;;;;;2.20;2.00;;;;;;;19.08;100.00;95980.56;4973594;28;101916;-60
2023/07/29 05:33:13;;;;;;;3.73;2.60;;;;;;;19.27;100.00;95978.41;4973361;28;105697;-60
2023/07/29 05:35:40;;;;;;;2.20;2.00;;;;;;;19.33;100.00;95982.53;4973009;28;105200;-60
2023/07/29 05:38:08;;;;;;;1.83;1.73;;;;;;;19.20;100.00;95978.03;4973326;28;101944;-60
2023/07/29 05:40:37;;;;;;;1.70;1.60;;;;;;;19.50;100.00;95974.47;4991480;28;102922;-60
2023/07/29 05:43:04;;;;;;;1.60;1.50;;;;;;;19.48;100.00;95972.09;4972907;28;105730;-60
2023/07/29 05:45:31;;;;;;;1.60;1.50;;;;;;;19.63;100.00;95971.59;4976561;28;102026;-60
2023/07/29 05:47:58;;;;;;;1.20;1.20;;;;;;;19.67;100.00;95963.69;4972657;28;105531;-60
2023/07/29 05:50:25;;;;;;;1.60;1.30;;;;;;;19.70;100.00;95960.34;4973034;28;101907;-60
2023/07/29 05:52:52;;;;;;;1.30;1.20;;;;;;;19.71;100.00;95957.34;4973357;28;105424;-60
2023/07/29 05:55:19;;;;;;;1.00;1.00;;;;;;;19.87;100.00;95960.34;4972545;28;105407;-60
2023/07/29 05:57:48;;;;;;;1.30;1.17;;;;;;;20.06;100.00;95964.28;4973064;28;102032;-60
2023/07/29 06:00:15;;;;;;;1.20;1.07;;;;;;;19.91;100.00;95950.50;4991033;28;102731;-60
2023/07/29 06:02:42;;;;;;;1.27;1.17;;;;;;;19.91;100.00;95950.50;4983882;28;102862;-60
2023/07/29 06:05:11;;;;;;;1.87;1.30;;;;;;;19.90;100.00;95954.31;4954934;28;102681;-60
2023/07/29 06:07:38;;;;;;;1.60;1.50;;;;;;;19.71;100.00;95951.13;4973260;28;105881;-60
2023/07/29 06:10:07;;;;;;;1.53;1.40;;;;;;;19.78;100.00;95952.25;4954240;28;101886;-60
2023/07/29 06:12:34;;;;;;;1.07;1.07;;;;;;;19.94;100.00;95961.44;4972809;28;102400;-60
2023/07/29 06:15:03;;;;;;;1.57;1.47;;;;;;;19.97;100.00;95962.72;4953577;28;105381;-65
2023/07/29 06:17:30;;;;;;;1.30;1.20;;;;;;;20.01;100.00;95960.97;4970224;28;101871;-60
2023/07/29 06:19:57;;;;;;;1.17;1.10;;;;;;;20.21;100.00;95963.03;4973395;28;105382;-60
2023/07/29 06:22:24;;;;;;;1.20;1.10;;;;;;;20.39;100.00;95970.75;4971667;28;105226;-60
2023/07/29 06:24:51;;;;;;;1.47;1.37;;;;;;;20.56;100.00;95975.31;4972127;28;101966;-60
2023/07/29 06:27:18;;;;;;;1.70;1.60;;;;;;;20.63;100.00;95970.19;4991721;28;102421;-60
2023/07/29 06:29:44;;;;;;;1.10;1.10;;;;;;;20.53;100.00;95982.16;4992990;28;101992;-59
2023/07/29 06:32:13;;;;;;;1.20;1.10;;;;;;;20.35;100.00;95969.81;4971621;28;102353;-60
2023/07/29 06:34:40;;;;;;;1.30;1.20;;;;;;;20.28;100.00;95968.72;4954368;28;105522;-59
2023/07/29 06:37:07;;;;;;;1.10;1.10;;;;;;;20.09;100.00;95968.28;4972976;28;102122;-60
2023/07/29 06:39:34;;;;;;;1.30;1.20;;;;;;;19.94;100.00;95998.44;4991201;28;102443;-60
2023/07/29 06:42:01;;;;;;;1.47;1.37;;;;;;;19.67;100.00;96031.13;4990603;28;102761;-61
2023/07/29 06:44:29;;;;;;;1.23;1.13;;;;;;;19.38;100.00;96087.53;4989084;28;101928;-62
2023/07/29 06:46:55;;;;;;;2.17;1.30;;;;;;;19.08;100.00;96061.41;4973160;28;105623;-61
2023/07/29 06:49:24;;;;;;;1.37;1.27;;;;;;;18.91;100.00;96050.56;4972654;28;105508;-61
2023/07/29 06:51:52;;;;;;;1.20;1.20;;;;;;;18.71;100.00;96040.31;4987925;28;102931;-61
2023/07/29 06:54:19;;;;;;;1.60;1.50;;;;;;;18.62;100.00;96026.00;4982710;28;103058;-61
2023/07/29 06:56:46;;;;;;;1.63;1.40;;;;;;;18.51;100.00;96025.50;4989901;28;101978;-61
2023/07/29 06:59:13;;;;;;;2.57;1.60;;;;;;;18.47;100.00;96019.13;4990695;28;102440;-61
2023/07/29 07:01:39;;;;;;;1.60;1.50;;;;;;;18.46;100.00;96016.72;4960047;28;105591;-61
2023/07/29 07:04:06;;;;;;;2.53;1.70;;;;;;;18.33;100.00;96021.13;4954518;28;101960;-61
2023/07/29 07:06:35;;;;;;;1.80;1.70;;;;;;;18.39;100.00;96043.31;4953278;28;105415;-61
2023/07/29 07:09:02;;;;;;;1.60;1.50;;;;;;;18.36;100.00;96038.56;4952812;28;105275;-61
2023/07/29 07:11:29;;;;;;;1.80;1.70;;;;;;;18.51;100.00;96040.84;4984379;28;102027;-61
2023/07/29 07:13:56;;;;;;;1.73;1.63;;;;;;;18.54;100.00;96049.09;4972154;28;105594;-61
2023/07/29 07:16:23;;;;;;;1.53;1.40;;;;;;;18.63;100.00;96066.09;4987067;28;102563;-61
2023/07/29 07:18:50;;;;;;;1.73;1.63;;;;;;;18.57;100.00;96061.97;4971168;28;104787;-61
2023/07/29 07:21:17;;;;;;;1.70;1.60;;;;;;;18.66;100.00;96053.91;4970454;28;103085;-61
2023/07/29 07:23:45;;;;;;;1.73;1.63;;;;;;;18.61;100.00;96056.75;4952812;28;101944;-61
2023/07/29 07:26:12;;;;;;;1.93;1.77;;;;;;;18.52;100.00;96072.84;4965199;28;105217;-61
2023/07/29 07:28:39;;;;;;;2.00;1.80;;;;;;;18.55;100.00;96083.03;4989736;28;102660;-61
2023/07/29 07:31:06;;;;;;;3.43;1.80;;;;;;;18.40;100.00;96093.34;4965534;28;103458;-61
2023/07/29 07:33:33;;;;;;;2.40;1.57;;;;;;;18.41;100.00;96101.13;4969206;28;105620;-61
2023/07/29 07:36:00;;;;;;;1.83;1.73;;;;;;;18.39;100.00;96102.53;4987798;28;102051;-61
2023/07/29 07:38:27;;;;;;;1.87;1.67;;;;;;;18.38;100.00;96103.66;4972554;28;104720;-61
2023/07/29 07:40:57;;;;;;;1.60;1.50;;;;;;;18.21;100.00;96090.03;4984593;28;101934;-61
2023/07/29 07:43:25;;;;;;;2.83;1.90;;;;;;;18.28;100.00;96074.25;4970365;28;101927;-61
2023/07/29 07:45:53;;;;;;;2.93;1.70;;;;;;;18.21;100.00;96074.66;4958323;28;105470;-61
2023/07/29 07:48:20;;;;;;;2.33;1.70;;;;;;;18.19;100.00;96070.69;4983137;28;102829;-61
2023/07/29 07:50:47;;;;;;;2.60;1.60;;;;;;;18.22;100.00;96056.63;4963036;28;102217;-61
2023/07/29 07:53:13;;;;;;;1.93;1.80;;;;;;;18.21;100.00;96058.50;4970634;28;102371;-61
2023/07/29 07:55:40;;;;;;;1.70;1.60;;;;;;;18.28;100.00;96058.09;4955333;28;105568;-61
2023/07/29 07:58:08;;;;;;;1.70;1.53;;;;;;;18.40;100.00;96056.47;4970280;28;102327;-61
2023/07/29 08:00:35;;;;;;;1.87;1.77;;;;;;;18.50;100.00;96060.78;4951902;28;105353;-61
2023/07/29 08:03:02;;;;;;;1.80;1.70;;;;;;;18.60;100.00;96055.16;4969882;28;101997;-61
2023/07/29 08:05:29;;;;;;;1.80;1.70;;;;;;;18.72;100.00;96064.25;4952636;28;105700;-61
2023/07/29 08:07:57;;;;;;;2.00;1.90;;;;;;;18.83;100.00;96060.19;4969876;28;102511;-61
2023/07/29 08:10:24;;;;;;;2.63;1.83;;;;;;;18.97;100.00;96060.09;4952337;28;101926;-61
2023/07/29 08:12:51;;;;;;;1.80;1.70;;;;;;;19.11;100.00;96048.09;4958952;28;102631;-61
2023/07/29 08:15:19;;;;;;;2.50;1.97;;;;;;;19.19;100.00;96046.56;4969727;28;102551;-61
2023/07/29 08:17:47;;;;;;;2.70;1.70;;;;;;;19.55;100.00;96036.34;4955590;28;102027;-61
2023/07/29 08:20:14;;;;;;;1.80;1.70;;;;;;;19.60;100.00;96042.38;4952078;28;106062;-61
2023/07/29 08:22:41;;;;;;;1.77;1.63;;;;;;;19.72;100.00;96041.78;4969218;28;102095;-61
2023/07/29 08:25:09;;;;;;;2.00;1.60;;;;;;;19.61;100.00;96045.91;4970508;28;102355;-61
2023/07/29 08:27:36;;;;;;;1.90;1.80;;;;;;;19.82;100.00;96044.16;4969056;28;102603;-61
2023/07/29 08:30:02;;;;;;;2.03;1.70;;;;;;;19.91;100.00;96042.25;4970130;28;101826;-61
2023/07/29 08:32:31;;;;;;;1.80;1.70;;;;;;;20.05;100.00;96037.50;4951632;28;105720;-61
2023/07/29 08:34:58;;;;;;;1.60;1.50;;;;;;;19.90;100.00;96025.25;4969521;28;102654;-61
2023/07/29 08:37:26;;;;;;;3.17;1.70;;;;;;;19.89;100.00;96023.69;4955324;28;102092;-61
2023/07/29 08:39:54;;;;;;;2.03;1.60;;;;;;;19.97;100.00;96024.78;4968701;28;103240;-61
2023/07/29 08:42:24;;;;;;;2.43;1.83;;;;;;;20.04;100.00;96020.50;4970000;28;101842;-61
2023/07/29 08:44:52;;;;;;;1.80;1.70;;;;;;;20.07;100.00;96028.00;4952333;28;105670;-61
2023/07/29 08:47:20;;;;;;;1.30;1.20;;;;;;;20.16;100.00;96022.59;4971857;28;102744;-61
2023/07/29 08:49:51;;;;;;;1.60;1.50;;;;;;;20.36;100.00;96011.13;4954630;28;103338;-61
2023/07/29 08:52:19;;;;;;;1.67;1.57;;;;;;;20.53;100.00;96005.66;4973215;28;102957;-61
2023/07/29 08:54:47;;;;;;;1.90;1.70;;;;;;;20.69;100.00;96004.03;4973283;28;102738;-61
2023/07/29 08:57:15;;;;;;;1.60;1.50;;;;;;;20.33;100.00;96009.06;4972984;28;101851;-61
2023/07/29 08:59:42;;;;;;;1.50;1.40;;;;;;;20.37;100.00;96007.28;4978708;28;102595;-61
2023/07/29 09:02:09;;;;;;;1.93;1.57;;;;;;;20.22;100.00;96015.91;4974484;28;102196;-61
2023/07/29 09:04:36;;;;;;;1.53;1.40;;;;;;;20.21;100.00;96020.53;4992834;28;102517;-61
2023/07/29 09:07:06;;;;;;;2.60;1.70;;;;;;;20.32;100.00;96021.00;4992298;28;102645;-61
2023/07/29 09:09:33;;;;;;;2.27;1.70;;;;;;;20.24;100.00;96017.19;4973179;28;102071;-61
2023/07/29 09:12:00;;;;;;;2.00;1.70;;;;;;;20.46;100.00;96029.69;4974743;28;105393;-61
2023/07/29 09:14:28;;;;;;;1.50;1.40;;;;;;;20.53;100.00;96041.59;4991963;28;102665;-61
2023/07/29 09:16:56;;;;;;;1.57;1.50;;;;;;;20.59;100.00;96036.84;4992721;28;101841;-61
2023/07/29 09:19:26;;;;;;;1.50;1.40;;;;;;;20.34;100.00;96032.25;4974292;28;105649;-61
2023/07/29 09:21:53;;;;;;;2.20;1.60;;;;;;;20.49;100.00;96032.53;4993762;28;102765;-61
2023/07/29 09:24:22;;;;;;;1.80;1.70;;;;;;;20.57;100.00;96031.75;4974361;28;104976;-61
2023/07/29 09:26:53;;;;;;;5.43;2.30;;;;;;;20.75;100.00;96022.47;4991630;28;102698;-61
2023/07/29 09:29:23;;;;;;;2.10;1.90;;;;;;;20.94;100.00;96039.13;4974402;28;101872;-61
2023/07/29 09:31:50;;;;;;;2.97;1.90;;;;;;;21.02;100.00;96029.38;4988004;28;102503;-61
2023/07/29 09:34:17;;;;;;;1.67;1.57;;;;;;;21.31;100.00;96015.91;4972981;28;104932;-61
2023/07/29 09:36:44;;;;;;;1.60;1.33;;;;;;;21.59;100.00;96006.16;4992345;28;102192;-61
2023/07/29 09:39:13;;;;;;;2.83;1.93;;;;;;;21.77;100.00;95997.63;4992267;28;102523;-61
2023/07/29 09:41:41;;;;;;;2.10;1.90;;;;;;;21.81;100.00;95998.56;4991562;28;102618;-61
2023/07/29 09:44:08;;;;;;;2.00;1.60;;;;;;;21.87;100.00;96012.69;4962774;28;102155;-61
2023/07/29 09:46:36;;;;;;;1.77;1.67;;;;;;;22.05;100.00;96006.00;4971659;28;103012;-61
2023/07/29 09:49:05;;;;;;;1.80;1.63;;;;;;;21.97;100.00;96012.28;4973132;28;102150;-61
2023/07/29 09:51:32;;;;;;;1.80;1.70;;;;;;;22.12;100.00;95995.44;4971987;28;102329;-61
2023/07/29 09:53:59;;;;;;;1.70;1.60;;;;;;;22.38;100.00;95998.66;4954904;28;105772;-63
2023/07/29 09:56:27;;;;;;;1.67;1.57;;;;;;;22.50;100.00;95994.09;4972065;28;101864;-62
2023/07/29 09:58:57;;;;;;;2.00;1.80;;;;;;;23.14;100.00;95997.81;4967769;28;104483;-62
2023/07/29 10:01:25;;;;;;;2.13;1.70;;;;;;;23.20;100.00;95995.69;4991270;28;101772;-62
2023/07/29 10:03:52;;;;;;;1.70;1.60;;;;;;;22.83;100.00;95989.44;4973491;28;101965;-62
2023/07/29 10:06:19;;;;;;;1.80;1.70;;;;;;;22.89;100.00;95984.59;4994814;28;102699;-62
2023/07/29 10:08:48;;;;;;;1.50;1.40;;;;;;;23.15;100.00;95977.69;4972415;28;102153;-62
2023/07/29 10:11:16;;;;;;;2.40;1.43;;;;;;;23.16;100.00;95981.22;4973895;28;105453;-62
2023/07/29 10:13:44;;;;;;;1.57;1.47;;;;;;;23.38;100.00;95980.78;4972813;28;105806;-62
2023/07/29 10:16:13;;;;;;;1.50;1.40;;;;;;;23.87;100.00;95971.41;4991028;28;101863;-62
2023/07/29 10:18:41;;;;;;;1.60;1.50;;;;;;;24.21;100.00;95977.06;4976849;28;102355;-62
2023/07/29 10:21:08;;;;;;;1.60;1.50;;;;;;;23.86;100.00;95970.59;4954304;28;105654;-62
2023/07/29 10:23:43;;;;;;;2.00;1.50;;;;;;;23.86;100.00;95975.25;4954860;28;101917;-62
2023/07/29 10:26:12;;;;;;;1.50;1.40;;;;;;;23.45;100.00;95970.13;4969800;28;105629;-62
2023/07/29 10:28:44;;;;;;;1.37;1.27;;;;;;;23.57;100.00;95970.09;4975724;28;105426;-62
2023/07/29 10:31:14;;;;;;;1.50;1.40;;;;;;;23.25;100.00;95968.31;4972817;28;102000;-62
2023/07/29 10:33:41;;;;;;;1.67;1.57;;;;;;;23.42;100.00;95970.78;4974338;28;102511;-62
2023/07/29 10:36:09;;;;;;;1.70;1.60;;;;;;;23.50;100.00;95967.19;4991340;28;101872;-62
2023/07/29 10:38:36;;;;;;;1.70;1.60;;;;;;;23.59;100.00;95959.72;4990592;28;102893;-62
2023/07/29 10:41:03;;;;;;;2.33;1.50;;;;;;;23.95;100.00;95962.34;4972085;28;103814;-62
2023/07/29 10:43:34;;;;;;;1.80;1.70;;;;;;;23.95;100.00;95962.34;4989605;28;101938;-62
2023/07/29 10:46:16;;;;;;;1.53;1.47;;;;;;;24.19;100.00;95967.69;4991395;28;102862;-62
2023/07/29 10:48:44;;;;;;;1.77;1.67;;;;;;;24.41;100.00;95964.41;4986761;28;102501;-62
2023/07/29 10:51:29;;;;;;;1.53;1.43;;;;;;;24.27;100.00;95962.09;4971207;28;102618;-62
2023/07/29 10:53:57;;;;;;;1.70;1.60;;;;;;;24.26;100.00;95957.78;4980636;28;103675;-62
2023/07/29 10:56:33;;;;;;;1.50;1.40;;;;;;;24.44;100.00;95959.06;4973167;28;101970;-62
2023/07/29 10:59:20;;;;;;;1.37;1.27;;;;;;;24.48;100.00;95962.66;4972718;28;105647;-62
2023/07/29 11:01:55;;;;;;;1.40;1.40;;;;;;;24.76;100.00;95966.16;4990215;28;102772;-62
2023/07/29 11:04:24;;;;;;;1.73;1.60;;;;;;;25.17;100.00;95953.94;4989598;28;102011;-63
2023/07/29 11:07:26;;;;;;;2.33;1.40;;;;;;;25.50;100.00;95946.19;4990878;28;102397;-64
2023/07/29 11:10:10;;;;;;;1.47;1.37;;;;;;;25.78;100.00;95946.78;4989932;28;102650;-63
2023/07/29 11:12:47;;;;;;;1.53;1.50;;;;;;;25.86;100.00;95943.84;4993821;28;101957;-63
2023/07/29 11:15:19;;;;;;;1.50;1.40;;;;;;;25.44;100.00;95939.44;4973478;28;103340;-63
2023/07/29 11:17:49;;;;;;;1.50;1.40;;;;;;;25.92;100.00;95941.63;4990689;28;101802;-63
2023/07/29 11:20:17;;;;;;;1.60;1.50;;;;;;;26.18;100.00;95934.41;4969051;28;105368;-63